createdAt,value
2023-02-24T00:01:51.933Z,89
2023-02-24T00:03:53.575Z,89
2023-02-24T00:05:50.505Z,89
2023-02-24T00:07:52.702Z,89
2023-02-24T00:09:53.316Z,89
2023-02-24T00:11:52.738Z,89
2023-02-24T00:13:51.123Z,89
2023-02-24T00:17:49.804Z,89
2023-02-24T00:19:52.410Z,89
2023-02-24T00:21:53.272Z,90
2023-02-24T00:23:49.319Z,90
2023-02-24T00:25:49.452Z,90
2023-02-24T00:29:51.790Z,90
2023-02-24T00:31:51.727Z,90
2023-02-24T00:35:52.415Z,90
2023-02-24T00:37:51.061Z,90
2023-02-24T00:41:49.415Z,90
2023-02-24T00:43:51.765Z,90
2023-02-24T00:45:52.662Z,90
2023-02-24T00:47:50.608Z,90
2023-02-24T00:49:52.677Z,90
2023-02-24T00:51:53.334Z,90
2023-02-24T00:53:52.556Z,90
2023-02-24T00:55:51.465Z,90
2023-02-24T00:57:52.442Z,90
2023-02-24T00:59:52.693Z,89
2023-02-24T01:01:52.363Z,90
2023-02-24T01:05:49.874Z,90
2023-02-24T01:07:49.363Z,90
2023-02-24T01:09:53.549Z,90
2023-02-24T01:11:52.237Z,90
2023-02-24T01:13:47.944Z,90
2023-02-24T01:15:54.131Z,90
2023-02-24T01:17:52.663Z,90
2023-02-24T01:19:49.865Z,90
2023-02-24T01:21:53.028Z,90
2023-02-24T01:23:51.643Z,90
2023-02-24T01:29:49.491Z,90
2023-02-24T01:31:50.570Z,90
2023-02-24T01:33:53.314Z,90
2023-02-24T01:35:49.538Z,90
2023-02-24T01:37:51.234Z,90
2023-02-24T01:39:53.247Z,90
2023-02-24T01:41:53.290Z,90
2023-02-24T01:43:49.867Z,90
2023-02-24T01:45:53.083Z,90
2023-02-24T01:47:49.508Z,90
2023-02-24T01:49:49.421Z,90
2023-02-24T01:51:53.838Z,90
2023-02-24T01:53:49.357Z,90
2023-02-24T01:59:47.610Z,90
2023-02-24T02:01:52.311Z,90
2023-02-24T02:03:53.007Z,90
2023-02-24T02:05:49.250Z,90
2023-02-24T02:07:49.369Z,91
2023-02-24T02:09:53.403Z,90
2023-02-24T02:11:50.667Z,90
2023-02-24T02:13:52.445Z,91
2023-02-24T02:17:49.334Z,91
2023-02-24T02:19:50.208Z,91
2023-02-24T02:21:52.427Z,90
2023-02-24T02:23:48.008Z,91
2023-02-24T02:25:50.249Z,90
2023-02-24T02:29:49.524Z,90
2023-02-24T02:35:49.727Z,90
2023-02-24T02:37:52.869Z,90
2023-02-24T02:41:52.775Z,90
2023-02-24T02:43:51.787Z,90
2023-02-24T02:45:53.247Z,90
2023-02-24T02:47:52.225Z,90
2023-02-24T02:49:50.574Z,90
2023-02-24T02:53:49.484Z,90
2023-02-24T02:55:52.732Z,90
2023-02-24T02:57:53.450Z,90
2023-02-24T02:59:49.922Z,90
2023-02-24T03:01:50.855Z,90
2023-02-24T03:05:50.596Z,90
2023-02-24T03:07:50.823Z,91
2023-02-24T03:11:49.388Z,90
2023-02-24T03:13:49.754Z,91
2023-02-24T03:15:53.716Z,91
2023-02-24T03:17:52.744Z,91
2023-02-24T03:19:52.092Z,91
2023-02-24T03:21:52.082Z,91
2023-02-24T03:23:50.834Z,91
2023-02-24T03:25:49.463Z,91
2023-02-24T03:29:52.530Z,91
2023-02-24T03:31:52.651Z,90
2023-02-24T03:33:53.593Z,91
2023-02-24T03:37:50.497Z,91
2023-02-24T03:39:53.049Z,91
2023-02-24T03:41:51.207Z,91
2023-02-24T03:43:56.677Z,91
2023-02-24T03:47:51.145Z,91
2023-02-24T03:49:52.904Z,91
2023-02-24T03:51:53.206Z,91
2023-02-24T03:53:49.915Z,91
2023-02-24T03:55:50.261Z,91
2023-02-24T03:57:53.185Z,91
2023-02-24T03:59:49.475Z,91
2023-02-24T04:01:50.793Z,90
2023-02-24T04:03:53.894Z,90
2023-02-24T04:05:49.035Z,90
2023-02-24T04:07:53.114Z,90
2023-02-24T04:09:51.941Z,90
2023-02-24T04:11:48.024Z,90
2023-02-24T04:13:52.721Z,90
2023-02-24T04:15:53.553Z,90
2023-02-24T04:17:52.695Z,90
2023-02-24T04:19:52.895Z,90
2023-02-24T04:21:53.333Z,91
2023-02-24T04:23:51.300Z,91
2023-02-24T04:25:52.424Z,91
2023-02-24T04:31:52.073Z,91
2023-02-24T04:35:50.283Z,91
2023-02-24T04:37:52.080Z,91
2023-02-24T04:41:52.427Z,91
2023-02-24T04:43:52.682Z,91
2023-02-24T04:45:53.400Z,91
2023-02-24T04:47:51.430Z,91
2023-02-24T04:49:52.141Z,91
2023-02-24T04:53:50.428Z,91
2023-02-24T04:55:52.448Z,91
2023-02-24T04:59:51.272Z,91
2023-02-24T05:01:56.264Z,91
2023-02-24T05:05:52.451Z,91
2023-02-24T05:07:49.278Z,91
2023-02-24T05:11:52.509Z,91
2023-02-24T05:13:52.032Z,91
2023-02-24T05:17:50.231Z,91
2023-02-24T05:19:48.109Z,91
2023-02-24T05:23:52.239Z,91
2023-02-24T05:25:49.620Z,91
2023-02-24T05:27:53.029Z,91
2023-02-24T05:29:49.583Z,91
2023-02-24T05:31:50.519Z,91
2023-02-24T05:33:52.767Z,91
2023-02-24T05:35:51.556Z,90
2023-02-24T05:37:51.833Z,91
2023-02-24T05:41:49.532Z,91
2023-02-24T05:43:48.006Z,90
2023-02-24T05:45:53.317Z,91
2023-02-24T05:47:48.050Z,91
2023-02-24T05:49:52.785Z,91
2023-02-24T05:51:53.626Z,90
2023-02-24T05:53:52.587Z,91
2023-02-24T05:55:52.352Z,91
2023-02-24T05:57:53.247Z,91
2023-02-24T05:59:51.475Z,91
2023-02-24T06:01:49.615Z,91
2023-02-24T06:03:53.747Z,91
2023-02-24T06:05:49.531Z,91
2023-02-24T06:07:52.829Z,91
2023-02-24T06:11:49.015Z,91
2023-02-24T06:13:50.016Z,91
2023-02-24T06:15:52.473Z,91
2023-02-24T06:17:49.514Z,91
2023-02-24T06:19:52.797Z,90
2023-02-24T06:23:49.524Z,90
2023-02-24T06:25:49.479Z,90
2023-02-24T06:27:52.251Z,90
2023-02-24T06:29:52.837Z,90
2023-02-24T06:31:47.898Z,90
2023-02-24T06:33:53.149Z,90
2023-02-24T06:35:47.338Z,90
2023-02-24T06:37:51.318Z,90
2023-02-24T06:41:51.647Z,90
2023-02-24T06:43:52.795Z,90
2023-02-24T06:45:52.949Z,90
2023-02-24T06:47:50.860Z,90
2023-02-24T06:49:53.491Z,90
2023-02-24T06:53:52.004Z,90
2023-02-24T06:55:56.614Z,90
2023-02-24T06:57:53.540Z,90
2023-02-24T06:59:55.586Z,90
2023-02-24T07:01:52.834Z,90
2023-02-24T07:03:55.693Z,90
2023-02-24T07:05:50.499Z,90
2023-02-24T07:07:51.389Z,90
2023-02-24T07:09:53.200Z,90
2023-02-24T07:11:52.610Z,90
2023-02-24T07:13:50.028Z,90
2023-02-24T07:15:52.119Z,90
2023-02-24T07:17:53.265Z,90
2023-02-24T07:19:49.624Z,90
2023-02-24T07:23:50.557Z,89
2023-02-24T07:25:51.780Z,89
2023-02-24T07:33:08.044Z,89
2023-02-24T07:35:02.546Z,89
2023-02-24T07:37:06.416Z,89
2023-02-24T07:39:03.908Z,89
2023-02-24T07:41:01.242Z,89
2023-02-24T07:43:01.702Z,89
2023-02-24T07:44:58.738Z,89
2023-02-24T07:47:08.560Z,89
2023-02-24T07:49:05.277Z,89
2023-02-24T07:51:01.735Z,89
2023-02-24T07:53:04.253Z,89
2023-02-24T07:55:01.915Z,89
2023-02-24T07:57:01.152Z,89
2023-02-24T07:59:05.342Z,89
2023-02-24T08:01:01.463Z,89
2023-02-24T08:03:01.768Z,89
2023-02-24T08:05:01.495Z,89
2023-02-24T08:07:03.705Z,90
2023-02-24T08:09:03.497Z,90
2023-02-24T08:13:01.757Z,90
2023-02-24T08:15:05.211Z,89
2023-02-24T08:17:05.356Z,89
2023-02-24T08:19:04.365Z,89
2023-02-24T08:21:01.845Z,89
2023-02-24T08:23:01.416Z,89
2023-02-24T08:25:04.647Z,89
2023-02-24T08:27:01.711Z,89
2023-02-24T08:29:05.135Z,89
2023-02-24T08:31:04.802Z,88
2023-02-24T08:33:05.043Z,88
2023-02-24T08:35:03.005Z,88
2023-02-24T08:37:01.720Z,88
2023-02-24T08:39:03.518Z,87
2023-02-24T08:41:01.500Z,87
2023-02-24T08:43:03.386Z,87
2023-02-24T08:45:01.870Z,87
2023-02-24T08:47:03.722Z,87
2023-02-24T08:49:03.310Z,87
2023-02-24T08:51:03.350Z,86
2023-02-24T08:53:02.929Z,86
2023-02-24T08:55:04.714Z,86
2023-02-24T08:59:02.318Z,86
2023-02-24T09:01:01.794Z,86
2023-02-24T09:03:01.819Z,86
2023-02-24T09:05:01.659Z,87
2023-02-24T09:07:11.197Z,87
2023-02-24T09:09:01.732Z,87
2023-02-24T09:11:03.750Z,87
2023-02-24T09:13:01.791Z,87
2023-02-24T09:15:04.596Z,87
2023-02-24T09:17:03.722Z,87
2023-02-24T09:19:04.804Z,87
2023-02-24T09:21:04.177Z,87
2023-02-24T09:23:04.226Z,87
2023-02-24T09:24:58.782Z,87
2023-02-24T09:27:02.097Z,87
2023-02-24T09:29:03.359Z,86
2023-02-24T09:31:03.671Z,86
2023-02-24T09:33:01.728Z,86
2023-02-24T09:35:01.990Z,86
2023-02-24T09:37:02.212Z,86
2023-02-24T09:39:04.197Z,86
2023-02-24T09:41:18.179Z,85
2023-02-24T09:43:01.620Z,86
2023-02-24T09:45:01.699Z,86
2023-02-24T09:49:03.855Z,85
2023-02-24T09:51:04.034Z,85
2023-02-24T09:53:09.780Z,85
2023-02-24T09:55:00.977Z,85
2023-02-24T09:57:01.301Z,85
2023-02-24T09:59:00.984Z,85
2023-02-24T10:01:01.667Z,85
2023-02-24T10:03:01.697Z,85
2023-02-24T10:05:02.945Z,85
2023-02-24T10:07:01.982Z,85
2023-02-24T10:09:01.545Z,85
2023-02-24T10:11:01.836Z,85
2023-02-24T10:12:58.765Z,85
2023-02-24T10:15:04.715Z,85
2023-02-24T10:17:04.953Z,85
2023-02-24T10:19:01.647Z,85
2023-02-24T10:21:01.782Z,84
2023-02-24T10:23:04.173Z,85
2023-02-24T10:25:01.623Z,84
2023-02-24T10:27:08.235Z,84
2023-02-24T10:29:01.827Z,84
2023-02-24T10:31:01.988Z,85
2023-02-24T10:33:01.809Z,84
2023-02-24T10:35:04.596Z,85
2023-02-24T10:37:01.778Z,85
2023-02-24T10:39:02.884Z,85
2023-02-24T10:41:01.739Z,85
2023-02-24T10:43:03.614Z,85
2023-02-24T10:45:03.351Z,85
2023-02-24T10:47:01.912Z,84
2023-02-24T10:49:04.991Z,84
2023-02-24T10:51:04.750Z,84
2023-02-24T10:53:01.745Z,84
2023-02-24T10:55:03.477Z,84
2023-02-24T10:57:01.457Z,84
2023-02-24T10:59:04.829Z,84
2023-02-24T11:01:04.923Z,84
2023-02-24T11:03:01.479Z,84
2023-02-24T11:05:02.648Z,84
2023-02-24T11:07:02.497Z,84
2023-02-24T11:09:03.420Z,84
2023-02-24T11:11:04.668Z,84
2023-02-24T11:13:09.132Z,84
2023-02-24T11:15:01.785Z,84
2023-02-24T11:17:04.997Z,84
2023-02-24T11:19:01.736Z,83
2023-02-24T11:23:03.109Z,83
2023-02-24T11:25:04.448Z,83
2023-02-24T11:27:04.143Z,83
2023-02-24T11:29:01.790Z,83
2023-02-24T11:31:02.260Z,82
2023-02-24T11:33:01.600Z,81
2023-02-24T11:35:03.421Z,82
2023-02-24T11:37:04.119Z,82
2023-02-24T11:39:15.419Z,82
2023-02-24T11:41:01.626Z,82
2023-02-24T11:43:01.746Z,82
2023-02-24T11:45:02.107Z,82
2023-02-24T11:47:03.718Z,82
2023-02-24T11:49:01.741Z,82
2023-02-24T11:51:01.788Z,82
2023-02-24T11:53:03.574Z,82
2023-02-24T11:55:01.595Z,82
2023-02-24T11:57:04.935Z,82
2023-02-24T11:59:01.653Z,82
2023-02-24T12:01:01.718Z,82
2023-02-24T12:03:04.016Z,81
2023-02-24T12:05:01.799Z,81
2023-02-24T12:07:01.528Z,81
2023-02-24T12:09:08.481Z,81
2023-02-24T12:11:01.696Z,80
2023-02-24T12:13:03.832Z,81
2023-02-24T12:17:02.171Z,81
2023-02-24T12:19:04.605Z,81
2023-02-24T12:21:01.584Z,81
2023-02-24T12:23:01.739Z,81
2023-02-24T12:25:01.627Z,82
2023-02-24T12:27:01.493Z,81
2023-02-24T12:29:01.931Z,81
2023-02-24T12:31:04.104Z,81
2023-02-24T12:33:03.135Z,82
2023-02-24T12:35:01.760Z,82
2023-02-24T12:37:04.819Z,82
2023-02-24T12:39:03.780Z,82
2023-02-24T12:41:01.893Z,82
2023-02-24T12:45:01.803Z,81
2023-02-24T12:47:01.113Z,81
2023-02-24T12:49:04.712Z,81
2023-02-24T12:51:03.998Z,81
2023-02-24T12:53:01.721Z,81
2023-02-24T12:55:02.843Z,81
2023-02-24T12:57:04.287Z,81
2023-02-24T12:59:03.445Z,81
2023-02-24T13:01:01.841Z,81
2023-02-24T13:03:01.086Z,81
2023-02-24T13:05:01.172Z,81
2023-02-24T13:07:04.921Z,81
2023-02-24T13:09:03.004Z,80
2023-02-24T13:11:01.799Z,80
2023-02-24T13:13:01.768Z,80
2023-02-24T13:15:02.797Z,80
2023-02-24T13:17:01.288Z,79
2023-02-24T13:19:05.006Z,80
2023-02-24T13:21:01.671Z,80
2023-02-24T13:23:01.838Z,79
2023-02-24T13:27:01.117Z,77
2023-02-24T13:29:01.908Z,78
2023-02-24T13:31:01.806Z,80
2023-02-24T13:33:01.287Z,80
2023-02-24T13:35:04.907Z,80
2023-02-24T13:39:01.805Z,80
2023-02-24T13:41:06.458Z,80
2023-02-24T13:43:03.462Z,80
2023-02-24T13:45:04.244Z,80
2023-02-24T13:47:04.829Z,80
2023-02-24T13:49:04.624Z,80
2023-02-24T13:51:02.535Z,80
2023-02-24T13:53:01.118Z,80
2023-02-24T13:55:01.801Z,80
2023-02-24T13:57:05.154Z,80
2023-02-24T14:00:48.489Z,80
2023-02-24T14:03:57.799Z,80
2023-02-24T14:12:46.272Z,81
2023-02-24T14:14:49.851Z,82
2023-02-24T14:16:51.860Z,82
2023-02-24T14:18:49.862Z,82
2023-02-24T14:20:51.734Z,82
2023-02-24T14:22:53.194Z,82
2023-02-24T14:24:53.214Z,82
2023-02-24T14:26:53.150Z,82
2023-02-24T14:28:51.797Z,82
2023-02-24T14:30:50.271Z,82
2023-02-24T14:32:51.574Z,82
2023-02-24T14:34:48.474Z,82
2023-02-24T14:36:49.826Z,82
2023-02-24T14:40:49.361Z,82
2023-02-24T14:42:49.800Z,82
2023-02-24T14:44:53.556Z,83
2023-02-24T14:46:51.396Z,83
2023-02-24T14:48:49.816Z,83
2023-02-24T14:50:50.007Z,83
2023-02-24T14:52:52.686Z,83
2023-02-24T14:54:51.929Z,83
2023-02-24T14:56:49.829Z,83
2023-02-24T14:58:53.461Z,83
2023-02-24T15:00:48.953Z,83
2023-02-24T15:02:49.889Z,83
2023-02-24T15:04:53.322Z,83
2023-02-24T15:06:52.056Z,82
2023-02-24T15:08:53.515Z,82
2023-02-24T15:10:49.840Z,81
2023-02-24T15:12:51.210Z,82
2023-02-24T15:14:50.732Z,82
2023-02-24T15:16:49.942Z,83
2023-02-24T15:18:51.346Z,83
2023-02-24T15:20:49.892Z,83
2023-02-24T15:22:49.889Z,83
2023-02-24T15:24:56.615Z,82
2023-02-24T15:26:49.883Z,82
2023-02-24T15:28:49.804Z,82
2023-02-24T15:30:54.869Z,82
2023-02-24T15:32:50.089Z,82
2023-02-24T15:34:54.726Z,83
2023-02-24T15:36:50.156Z,83
2023-02-24T15:38:56.176Z,83
2023-02-24T15:40:50.758Z,82
2023-02-24T15:42:50.600Z,83
2023-02-24T15:44:51.176Z,83
2023-02-24T15:46:50.839Z,83
2023-02-24T15:48:51.741Z,83
2023-02-24T15:50:53.446Z,84
2023-02-24T15:52:54.670Z,84
2023-02-24T15:54:50.802Z,84
2023-02-24T15:58:54.742Z,84
2023-02-24T16:00:51.380Z,84
2023-02-24T16:02:51.173Z,84
2023-02-24T16:04:49.354Z,84
2023-02-24T16:06:49.917Z,84
2023-02-24T16:08:53.037Z,84
2023-02-24T16:10:49.426Z,84
2023-02-24T16:12:49.811Z,84
2023-02-24T16:14:53.201Z,84
2023-02-24T16:16:49.840Z,84
2023-02-24T16:18:53.391Z,84
2023-02-24T16:20:53.131Z,84
2023-02-24T16:22:48.940Z,84
2023-02-24T16:24:53.179Z,84
2023-02-24T16:26:49.910Z,84
2023-02-24T16:28:50.350Z,84
2023-02-24T16:30:54.981Z,84
2023-02-24T16:32:49.808Z,84
2023-02-24T16:36:49.395Z,84
2023-02-24T16:38:49.818Z,84
2023-02-24T16:40:49.890Z,84
2023-02-24T16:42:52.984Z,84
2023-02-24T16:44:50.196Z,85
2023-02-24T16:46:50.324Z,85
2023-02-24T16:48:51.693Z,85
2023-02-24T16:50:49.877Z,85
2023-02-24T16:52:53.120Z,85
2023-02-24T16:54:55.946Z,85
2023-02-24T16:56:53.236Z,85
2023-02-24T16:58:49.109Z,85
2023-02-24T17:00:49.936Z,86
2023-02-24T17:02:50.554Z,86
2023-02-24T17:04:53.170Z,86
2023-02-24T17:06:51.635Z,86
2023-02-24T17:08:52.375Z,86
2023-02-24T17:10:52.992Z,86
2023-02-24T17:12:53.117Z,86
2023-02-24T17:14:53.125Z,86
2023-02-24T17:16:49.957Z,86
2023-02-24T17:18:50.446Z,86
2023-02-24T17:20:52.133Z,86
2023-02-24T17:22:50.799Z,86
2023-02-24T17:24:53.337Z,86
2023-02-24T17:26:53.021Z,86
2023-02-24T17:30:49.882Z,86
2023-02-24T17:32:49.851Z,86
2023-02-24T17:34:51.953Z,86
2023-02-24T17:36:47.723Z,86
2023-02-24T17:38:49.882Z,86
2023-02-24T17:40:51.793Z,87
2023-02-24T17:42:51.299Z,87
2023-02-24T17:44:53.122Z,87
2023-02-24T17:46:49.832Z,88
2023-02-24T17:48:53.129Z,88
2023-02-24T17:50:51.930Z,88
2023-02-24T17:52:50.236Z,88
2023-02-24T17:54:50.945Z,88
2023-02-24T17:56:52.602Z,88
2023-02-24T17:58:49.795Z,88
2023-02-24T18:00:51.250Z,88
2023-02-24T18:02:53.206Z,88
2023-02-24T18:04:50.610Z,88
2023-02-24T18:06:49.428Z,88
2023-02-24T18:08:50.197Z,88
2023-02-24T18:10:52.011Z,87
2023-02-24T18:12:51.501Z,87
2023-02-24T18:14:59.172Z,87
2023-02-24T18:16:46.579Z,87
2023-02-24T18:18:51.946Z,87
2023-02-24T18:20:51.078Z,87
2023-02-24T18:22:49.852Z,87
2023-02-24T18:24:50.736Z,87
2023-02-24T18:26:49.452Z,88
2023-02-24T18:28:51.571Z,87
2023-02-24T18:30:53.121Z,88
2023-02-24T18:32:52.135Z,87
2023-02-24T18:34:53.085Z,87
2023-02-24T18:36:52.084Z,87
2023-02-24T18:38:53.007Z,87
2023-02-24T18:40:51.520Z,87
2023-02-24T18:42:49.660Z,88
2023-02-24T18:44:52.009Z,88
2023-02-24T18:46:51.179Z,88
2023-02-24T18:48:51.964Z,88
2023-02-24T18:52:50.529Z,88
2023-02-24T18:54:50.720Z,88
2023-02-24T18:56:50.494Z,88
2023-02-24T18:58:51.572Z,88
2023-02-24T19:02:49.977Z,87
2023-02-24T19:04:50.351Z,87
2023-02-24T19:06:49.656Z,87
2023-02-24T19:08:51.175Z,87
2023-02-24T19:10:50.627Z,87
2023-02-24T19:12:52.103Z,87
2023-02-24T19:14:50.980Z,87
2023-02-24T19:16:51.095Z,87
2023-02-24T19:18:52.776Z,87
2023-02-24T19:20:51.124Z,87
2023-02-24T19:22:51.658Z,87
2023-02-24T19:24:51.838Z,87
2023-02-24T19:26:51.458Z,86
2023-02-24T19:28:49.927Z,86
2023-02-24T19:30:52.475Z,87
2023-02-24T19:32:49.956Z,87
2023-02-24T19:34:52.027Z,86
2023-02-24T19:36:52.291Z,87
2023-02-24T19:38:51.039Z,87
2023-02-24T19:40:51.378Z,87
2023-02-24T19:42:53.026Z,87
2023-02-24T19:44:53.496Z,87
2023-02-24T19:46:52.615Z,87
2023-02-24T19:48:52.362Z,87
2023-02-24T19:50:50.491Z,87
2023-02-24T19:52:49.561Z,87
2023-02-24T19:54:51.586Z,87
2023-02-24T19:56:46.536Z,87
2023-02-24T19:58:49.376Z,87
2023-02-24T20:00:49.722Z,86
2023-02-24T20:02:49.373Z,87
2023-02-24T20:04:49.134Z,87
2023-02-24T20:06:50.397Z,87
2023-02-24T20:08:49.807Z,86
2023-02-24T20:10:49.355Z,87
2023-02-24T20:12:50.728Z,87
2023-02-24T20:14:53.108Z,86
2023-02-24T20:16:49.893Z,86
2023-02-24T20:18:50.649Z,86
2023-02-24T20:20:53.097Z,86
2023-02-24T20:22:49.458Z,86
2023-02-24T20:24:49.850Z,86
2023-02-24T20:26:50.312Z,86
2023-02-24T20:28:50.716Z,86
2023-02-24T20:30:49.729Z,86
2023-02-24T20:32:51.626Z,86
2023-02-24T20:34:48.981Z,87
2023-02-24T20:36:52.861Z,86
2023-02-24T20:38:49.364Z,86
2023-02-24T20:40:52.545Z,86
2023-02-24T20:42:52.838Z,87
2023-02-24T20:44:49.392Z,87
2023-02-24T20:46:49.696Z,86
2023-02-24T20:48:51.230Z,87
2023-02-24T20:50:51.018Z,87
2023-02-24T20:52:52.108Z,87
2023-02-24T20:54:49.778Z,87
2023-02-24T20:56:49.403Z,87
2023-02-24T20:58:52.230Z,87
2023-02-24T21:00:49.568Z,87
2023-02-24T21:02:52.546Z,87
2023-02-24T21:04:50.829Z,87
2023-02-24T21:06:49.370Z,87
2023-02-24T21:08:49.389Z,88
2023-02-24T21:10:52.937Z,88
2023-02-24T21:12:52.168Z,88
2023-02-24T21:14:46.578Z,88
2023-02-24T21:16:49.897Z,88
2023-02-24T21:18:53.265Z,88
2023-02-24T21:20:49.406Z,88
2023-02-24T21:22:51.729Z,88
2023-02-24T21:24:52.403Z,88
2023-02-24T21:26:49.958Z,88
2023-02-24T21:28:51.778Z,88
2023-02-24T21:30:53.201Z,89
2023-02-24T21:32:49.830Z,89
2023-02-24T21:34:49.412Z,89
2023-02-24T21:36:51.028Z,89
2023-02-24T21:38:52.505Z,89
2023-02-24T21:40:51.253Z,89
2023-02-24T21:42:50.421Z,89
2023-02-24T21:44:49.439Z,89
2023-02-24T21:46:49.924Z,89
2023-02-24T21:48:52.154Z,89
2023-02-24T21:50:53.068Z,89
2023-02-24T21:52:50.510Z,89
2023-02-24T21:56:49.390Z,89
2023-02-24T21:58:49.463Z,88
2023-02-24T22:00:51.774Z,87
2023-02-24T22:02:52.213Z,88
2023-02-24T22:04:49.219Z,88
2023-02-24T22:06:53.052Z,88
2023-02-24T22:08:56.111Z,88
2023-02-24T22:10:48.950Z,88
2023-02-24T22:12:53.093Z,88
2023-02-24T22:14:49.407Z,88
2023-02-24T22:16:53.033Z,88
2023-02-24T22:18:50.907Z,88
2023-02-24T22:20:52.884Z,88
2023-02-24T22:22:49.419Z,88
2023-02-24T22:24:49.772Z,89
2023-02-24T22:26:49.583Z,88
2023-02-24T22:28:49.498Z,88
2023-02-24T22:30:49.460Z,88
2023-02-24T22:32:49.553Z,88
2023-02-24T22:34:51.515Z,88
2023-02-24T22:36:51.223Z,88
2023-02-24T22:38:49.330Z,88
2023-02-24T22:40:51.650Z,89
2023-02-24T22:42:53.089Z,89
2023-02-24T22:44:49.776Z,89
2023-02-24T22:46:49.830Z,89
2023-02-24T22:48:52.494Z,89
2023-02-24T22:50:50.810Z,89
2023-02-24T22:52:51.206Z,89
2023-02-24T22:54:51.427Z,89
2023-02-24T22:56:54.721Z,89
2023-02-24T22:58:52.217Z,88
2023-02-24T23:00:49.536Z,88
2023-02-24T23:02:50.381Z,88
2023-02-24T23:06:50.953Z,89
2023-02-24T23:08:48.953Z,89
2023-02-24T23:10:51.123Z,89
2023-02-24T23:12:53.249Z,89
2023-02-24T23:14:49.489Z,89
2023-02-24T23:16:49.595Z,89
2023-02-24T23:18:53.197Z,89
2023-02-24T23:20:52.664Z,89
2023-02-24T23:22:53.166Z,89
2023-02-24T23:24:46.589Z,89
2023-02-24T23:26:49.472Z,89
2023-02-24T23:28:52.493Z,89
2023-02-24T23:30:50.951Z,89
2023-02-24T23:32:50.436Z,89
2023-02-24T23:34:46.671Z,89
2023-02-24T23:36:49.676Z,89
2023-02-24T23:38:50.486Z,89
2023-02-24T23:40:51.272Z,89
2023-02-24T23:42:51.404Z,89
2023-02-24T23:44:48.972Z,89
2023-02-24T23:46:49.482Z,89
2023-02-24T23:48:53.150Z,89
2023-02-24T23:50:52.389Z,89
2023-02-24T23:52:53.932Z,89
2023-02-24T23:54:52.317Z,89
2023-02-24T23:56:49.406Z,89
2023-02-24T23:58:49.470Z,89
